Time;durP1;ratioP1;P1;durP2;ratioP2;P2;SDS_P1;SDS_P2;PMS_P1;PMS_P2;Temp;Humidity;BMP_temperature;BMP_pressure;BME280_temperature;BME280_humidity;BME280_pressure;Samples;Min_cycle;Max_cycle;Signal;HPM_P1;HPM_P2
2022/06/12 00:01:57;;;;;;;3.50;2.83;;;16.80;99.90;;;;;;5074221;28;20490;-47
2022/06/12 00:04:24;;;;;;;3.67;3.30;;;16.90;99.90;;;;;;5073908;28;20755;-47
2022/06/12 00:06:52;;;;;;;3.50;3.20;;;16.80;99.90;;;;;;5074261;28;20518;-47
2022/06/12 00:09:20;;;;;;;3.33;2.47;;;16.80;99.90;;;;;;5074092;28;20478;-47
2022/06/12 00:11:48;;;;;;;3.70;2.80;;;16.80;99.90;;;;;;5073908;28;20527;-50
2022/06/12 00:14:15;;;;;;;3.33;3.03;;;16.70;99.90;;;;;;5074271;28;20531;-49
2022/06/12 00:16:46;;;;;;;2.90;2.70;;;16.60;99.90;;;;;;5074273;28;20448;-46
2022/06/12 00:19:14;;;;;;;3.20;2.80;;;16.50;99.90;;;;;;5073914;28;20464;-47
2022/06/12 00:21:42;;;;;;;2.50;2.30;;;16.50;99.90;;;;;;5072711;28;20490;-47
2022/06/12 00:24:13;;;;;;;3.10;2.60;;;16.60;99.90;;;;;;5073828;28;20515;-51
2022/06/12 00:26:42;;;;;;;3.43;2.63;;;16.60;99.90;;;;;;5073926;28;20523;-47
2022/06/12 00:29:14;;;;;;;2.67;2.47;;;16.60;99.90;;;;;;5072952;28;20502;-47
2022/06/12 00:31:44;;;;;;;3.13;2.73;;;16.60;99.90;;;;;;5073683;28;20533;-48
2022/06/12 00:34:12;;;;;;;3.40;3.00;;;16.50;99.90;;;;;;5073577;28;20561;-47
2022/06/12 00:36:40;;;;;;;4.63;3.40;;;16.50;99.90;;;;;;5073349;28;20808;-46
2022/06/12 00:39:08;;;;;;;3.80;2.50;;;16.50;99.90;;;;;;5073223;28;20976;-47
2022/06/12 00:41:36;;;;;;;3.23;2.83;;;16.50;99.90;;;;;;5073252;28;20451;-47
2022/06/12 00:44:04;;;;;;;3.20;2.90;;;16.50;99.90;;;;;;5073320;28;20545;-47
2022/06/12 00:46:46;;;;;;;3.07;2.77;;;16.50;99.90;;;;;;5073624;28;20469;-48
2022/06/12 00:49:17;;;;;;;2.77;2.57;;;16.50;99.90;;;;;;5073118;28;20462;-49
2022/06/12 00:51:47;;;;;;;2.93;2.70;;;16.50;99.90;;;;;;5073235;28;20468;-47
2022/06/12 00:54:15;;;;;;;3.57;2.63;;;16.40;99.90;;;;;;5073151;28;20506;-47
2022/06/12 00:56:47;;;;;;;3.10;2.50;;;16.40;99.90;;;;;;5073356;28;20531;-50
2022/06/12 00:59:17;;;;;;;3.50;2.83;;;16.50;99.90;;;;;;5072927;28;20558;-47
2022/06/12 01:01:49;;;;;;;3.30;3.00;;;16.40;99.90;;;;;;5073114;28;20440;-46
2022/06/12 01:07:05;;;;;;;6.10;3.07;;;16.40;99.90;;;;;;5073379;28;20424;-47
2022/06/12 01:09:36;;;;;;;3.67;2.90;;;16.40;99.90;;;;;;5072839;28;20547;-47
2022/06/12 01:12:06;;;;;;;3.20;2.73;;;16.30;99.90;;;;;;5073040;28;20455;-47
2022/06/12 01:14:41;;;;;;;2.80;2.40;;;16.30;99.90;;;;;;5072641;28;20469;-47
2022/06/12 01:17:11;;;;;;;4.20;3.20;;;16.30;99.90;;;;;;5073237;28;20444;-47
2022/06/12 01:19:43;;;;;;;4.00;2.77;;;16.30;99.90;;;;;;5073124;28;20548;-47
2022/06/12 01:22:48;;;;;;;5.10;3.07;;;16.30;99.90;;;;;;5072920;28;20447;-46
2022/06/12 01:25:51;;;;;;;4.07;2.50;;;16.20;99.90;;;;;;5072590;28;20565;-48
2022/06/12 01:28:44;;;;;;;2.60;2.40;;;16.20;99.90;;;;;;5072499;28;20440;-47
2022/06/12 01:31:30;;;;;;;3.07;2.73;;;16.10;99.90;;;;;;5072366;28;20451;-47
2022/06/12 01:34:04;;;;;;;7.60;2.97;;;16.20;99.90;;;;;;5071906;28;20596;-47
2022/06/12 01:36:36;;;;;;;5.17;2.57;;;16.20;99.90;;;;;;5072434;28;20498;-47
2022/06/12 01:39:18;;;;;;;3.27;2.97;;;16.00;99.90;;;;;;5072502;28;20543;-47
2022/06/12 01:41:53;;;;;;;3.17;2.70;;;16.00;99.90;;;;;;5071884;28;20433;-47
2022/06/12 01:44:30;;;;;;;3.50;3.20;;;16.00;99.90;;;;;;5072677;28;20443;-50
2022/06/12 01:47:01;;;;;;;3.67;3.37;;;15.90;99.90;;;;;;5072466;28;20471;-47
2022/06/12 01:49:36;;;;;;;3.03;2.73;;;15.90;99.90;;;;;;5071710;28;20502;-48
2022/06/12 01:52:12;;;;;;;3.73;2.90;;;15.80;99.90;;;;;;5072285;28;20432;-51
2022/06/12 01:54:43;;;;;;;5.20;3.03;;;15.90;99.90;;;;;;5072215;28;20440;-47
2022/06/12 01:57:15;;;;;;;3.50;2.80;;;15.90;99.90;;;;;;5072267;28;20468;-47
2022/06/12 01:59:50;;;;;;;3.50;3.20;;;15.90;99.90;;;;;;5128775;22;21122;-45
2022/06/12 02:02:22;;;;;;;5.17;3.30;;;15.80;99.90;;;;;;5072035;28;20448;-50
2022/06/12 02:04:56;;;;;;;2.83;2.57;;;15.80;99.90;;;;;;5071945;28;20480;-45
2022/06/12 02:07:30;;;;;;;2.97;2.70;;;15.90;99.90;;;;;;5071885;28;20475;-47
2022/06/12 02:10:02;;;;;;;2.70;2.20;;;15.90;99.90;;;;;;5071403;28;20459;-43
2022/06/12 02:15:24;;;;;;;4.87;2.83;;;15.90;99.90;;;;;;5071671;28;20421;-43
2022/06/12 02:17:55;;;;;;;3.30;3.00;;;15.80;99.90;;;;;;5071715;28;20478;-46
2022/06/12 02:20:26;;;;;;;3.20;2.60;;;15.70;99.90;;;;;;5071521;28;20766;-46
2022/06/12 02:22:56;;;;;;;3.23;2.93;;;15.70;99.90;;;;;;5071857;28;20468;-45
2022/06/12 02:25:27;;;;;;;3.10;2.40;;;15.70;99.90;;;;;;5071609;28;20480;-47
2022/06/12 02:28:01;;;;;;;3.07;2.77;;;15.70;99.90;;;;;;5071832;28;20479;-46
2022/06/12 02:30:33;;;;;;;3.43;2.67;;;15.70;99.90;;;;;;5071010;28;20991;-45
2022/06/12 02:33:04;;;;;;;2.70;2.40;;;15.70;99.90;;;;;;5071618;28;20523;-45
2022/06/12 02:35:39;;;;;;;3.50;3.00;;;15.50;99.90;;;;;;5071661;28;20518;-46
2022/06/12 02:38:10;;;;;;;3.90;2.47;;;15.60;99.90;;;;;;5071292;28;20912;-45
2022/06/12 02:40:45;;;;;;;4.37;2.93;;;15.60;99.90;;;;;;5071149;28;20496;-45
2022/06/12 02:43:19;;;;;;;3.17;2.87;;;15.60;99.90;;;;;;5071226;28;20436;-46
2022/06/12 02:45:53;;;;;;;2.83;2.60;;;15.70;99.90;;;;;;5070355;28;20570;-46
2022/06/12 02:48:21;;;;;;;3.57;2.50;;;15.60;99.90;;;;;;5071503;28;20440;-45
2022/06/12 02:50:58;;;;;;;3.10;2.80;;;15.60;99.90;;;;;;5071153;28;20846;-45
2022/06/12 02:53:33;;;;;;;2.97;2.60;;;15.60;99.90;;;;;;5071261;28;20440;-47
2022/06/12 02:56:06;;;;;;;3.27;2.97;;;15.50;99.90;;;;;;5071399;28;20921;-45
2022/06/12 02:58:39;;;;;;;3.13;2.60;;;15.50;99.90;;;;;;5071378;28;20444;-45
2022/06/12 03:01:11;;;;;;;3.90;2.70;;;15.50;99.90;;;;;;5071150;28;20898;-46
2022/06/12 03:03:45;;;;;;;2.93;2.50;;;15.50;99.90;;;;;;5071192;28;21002;-45
2022/06/12 03:06:12;;;;;;;2.60;2.40;;;15.50;99.90;;;;;;5070818;28;20508;-46
2022/06/12 03:08:43;;;;;;;3.00;2.37;;;15.60;99.90;;;;;;5070721;28;20448;-50
2022/06/12 03:11:14;;;;;;;4.73;2.57;;;15.60;99.90;;;;;;5070761;28;20492;-49
2022/06/12 03:13:41;;;;;;;2.70;2.50;;;15.50;99.90;;;;;;5071179;28;20925;-45
2022/06/12 03:16:17;;;;;;;4.30;2.33;;;15.50;99.90;;;;;;5071036;28;20515;-46
2022/06/12 03:18:49;;;;;;;3.20;2.87;;;15.40;99.90;;;;;;5070739;28;20444;-51
2022/06/12 03:21:29;;;;;;;3.17;2.87;;;15.40;99.90;;;;;;5071125;28;21090;-45
2022/06/12 03:24:23;;;;;;;3.70;2.90;;;15.40;99.90;;;;;;5071018;28;20440;-49
2022/06/12 03:26:58;;;;;;;2.77;2.57;;;15.50;99.90;;;;;;5070937;28;20566;-45
2022/06/12 03:29:33;;;;;;;3.30;2.47;;;15.50;99.90;;;;;;5070310;28;20489;-47
2022/06/12 03:32:10;;;;;;;2.37;2.17;;;15.40;99.90;;;;;;5071076;28;20782;-45
2022/06/12 03:34:47;;;;;;;2.73;2.50;;;15.40;99.90;;;;;;5071156;28;20483;-46
2022/06/12 03:37:22;;;;;;;2.90;2.70;;;15.40;99.90;;;;;;5071158;28;20497;-46
2022/06/12 03:39:58;;;;;;;3.00;2.60;;;15.30;99.90;;;;;;5070425;28;20491;-48
2022/06/12 03:42:33;;;;;;;4.03;3.10;;;15.30;99.90;;;;;;5070443;28;20444;-45
2022/06/12 03:45:06;;;;;;;3.13;2.90;;;15.30;99.90;;;;;;5070778;28;20440;-46
2022/06/12 03:47:40;;;;;;;2.60;2.40;;;15.30;99.90;;;;;;5070798;28;20440;-45
2022/06/12 03:50:14;;;;;;;2.93;2.63;;;15.30;99.90;;;;;;5070961;28;20539;-46
2022/06/12 03:52:49;;;;;;;3.47;2.90;;;15.20;99.90;;;;;;5070836;28;20864;-45
2022/06/12 03:57:50;;;;;;;2.60;2.40;;;15.20;99.90;;;;;;5070559;28;20526;-45
2022/06/12 03:58:12;;;;;;;4.87;2.67;;;15.30;99.90;;;;;;5074091;28;20447;-47
2022/06/12 04:00:43;;;;;;;3.77;2.50;;;15.30;99.90;;;;;;5074041;28;20470;-46
2022/06/12 04:03:14;;;;;;;3.80;2.90;;;15.30;99.90;;;;;;5074513;28;20472;-45
2022/06/12 04:05:45;;;;;;;3.23;2.70;;;15.30;99.90;;;;;;5074295;28;20471;-45
2022/06/12 04:08:20;;;;;;;3.50;3.13;;;15.30;99.90;;;;;;5074047;28;20440;-45
2022/06/12 04:10:49;;;;;;;3.10;2.80;;;15.30;99.90;;;;;;5074437;28;20512;-48
2022/06/12 04:13:19;;;;;;;2.70;2.30;;;15.30;99.90;;;;;;5074203;28;20440;-45
2022/06/12 04:15:51;;;;;;;3.10;2.63;;;15.30;99.90;;;;;;5074358;28;20524;-46
2022/06/12 04:18:19;;;;;;;3.13;2.83;;;15.30;99.90;;;;;;5074044;28;20534;-45
2022/06/12 04:20:56;;;;;;;3.80;3.20;;;15.30;99.90;;;;;;5073821;28;20520;-46
2022/06/12 04:23:31;;;;;;;4.23;2.47;;;15.30;99.90;;;;;;5073862;28;20502;-45
2022/06/12 04:26:02;;;;;;;3.20;2.90;;;15.20;99.90;;;;;;5074152;28;20558;-44
2022/06/12 04:28:33;;;;;;;3.40;2.70;;;15.20;99.90;;;;;;5073624;28;20437;-45
2022/06/12 04:31:02;;;;;;;3.03;2.73;;;15.20;99.90;;;;;;5073547;28;20468;-45
2022/06/12 04:33:50;;;;;;;2.67;2.47;;;15.30;99.90;;;;;;5073827;28;20441;-46
2022/06/12 04:36:17;;;;;;;2.90;2.67;;;15.20;99.90;;;;;;5073447;28;20910;-45
2022/06/12 04:38:45;;;;;;;2.90;2.40;;;15.20;99.90;;;;;;5073561;28;20523;-45
2022/06/12 04:41:21;;;;;;;5.30;2.70;;;15.20;99.90;;;;;;5073562;28;20533;-45
2022/06/12 04:43:48;;;;;;;3.60;2.40;;;15.20;99.90;;;;;;5073121;28;20483;-45
2022/06/12 04:46:15;;;;;;;3.10;2.70;;;15.20;99.90;;;;;;5073739;28;20519;-45
2022/06/12 04:48:47;;;;;;;2.70;2.50;;;15.20;99.90;;;;;;5073377;28;20561;-45
2022/06/12 04:51:14;;;;;;;3.40;2.43;;;15.20;99.90;;;;;;5073225;28;20496;-44
2022/06/12 04:53:44;;;;;;;3.30;2.57;;;15.20;99.90;;;;;;5073500;28;20983;-45
2022/06/12 04:56:11;;;;;;;3.03;2.30;;;15.30;99.90;;;;;;5073364;28;20475;-48
2022/06/12 04:58:39;;;;;;;5.97;3.20;;;15.30;99.90;;;;;;5073306;28;20875;-47
2022/06/12 05:01:07;;;;;;;2.50;2.30;;;15.30;99.90;;;;;;5072889;28;20472;-48
2022/06/12 05:03:34;;;;;;;2.87;2.57;;;15.30;99.90;;;;;;5073335;28;20476;-49
2022/06/12 05:06:04;;;;;;;2.53;2.33;;;15.30;99.90;;;;;;5072762;28;20468;-45
2022/06/12 05:08:32;;;;;;;4.80;2.87;;;15.30;99.90;;;;;;5072480;28;20447;-45
2022/06/12 05:10:59;;;;;;;2.70;2.40;;;15.20;99.90;;;;;;5072491;28;20573;-46
2022/06/12 05:13:26;;;;;;;2.83;2.57;;;15.20;99.90;;;;;;5072914;28;20480;-45
2022/06/12 05:15:53;;;;;;;3.37;3.07;;;15.30;99.90;;;;;;5072845;28;20475;-49
2022/06/12 05:18:21;;;;;;;4.00;2.77;;;15.30;99.90;;;;;;5072778;28;20444;-46
2022/06/12 05:20:48;;;;;;;2.70;2.50;;;15.30;99.90;;;;;;5072573;28;20456;-46
2022/06/12 05:23:17;;;;;;;2.77;2.50;;;15.30;99.90;;;;;;5072697;28;20441;-45
2022/06/12 05:25:44;;;;;;;3.60;2.90;;;15.30;99.90;;;;;;5072714;28;20510;-49
2022/06/12 05:28:14;;;;;;;3.90;2.80;;;15.30;99.90;;;;;;5072711;28;20444;-45
2022/06/12 05:30:41;;;;;;;3.90;2.80;;;15.40;99.90;;;;;;5072460;28;20456;-45
2022/06/12 05:33:09;;;;;;;4.23;2.63;;;15.30;99.90;;;;;;5072881;28;20479;-49
2022/06/12 05:35:37;;;;;;;2.90;2.67;;;15.20;99.90;;;;;;5072582;28;20759;-45
2022/06/12 05:38:06;;;;;;;8.10;3.00;;;15.10;99.90;;;;;;5072621;28;20444;-45
2022/06/12 05:40:36;;;;;;;4.30;2.93;;;15.10;99.90;;;;;;5072731;28;20465;-49
2022/06/12 05:43:04;;;;;;;2.83;2.50;;;15.20;99.90;;;;;;5072026;28;20467;-46
2022/06/12 05:45:32;;;;;;;3.27;2.20;;;15.30;99.90;;;;;;5072271;28;20495;-48
2022/06/12 05:48:04;;;;;;;3.00;2.23;;;15.30;99.90;;;;;;5072296;28;20448;-49
2022/06/12 05:50:34;;;;;;;3.30;2.40;;;15.30;99.90;;;;;;5071994;28;20535;-45
2022/06/12 05:53:01;;;;;;;6.10;2.50;;;15.30;99.90;;;;;;5072395;28;20448;-45
2022/06/12 05:55:29;;;;;;;2.60;2.23;;;15.30;99.90;;;;;;5071994;28;20535;-47
2022/06/12 05:57:58;;;;;;;2.40;2.07;;;15.30;99.90;;;;;;5072086;28;20445;-45
2022/06/12 06:00:27;;;;;;;2.40;2.20;;;15.20;99.90;;;;;;5071670;28;20468;-45
2022/06/12 06:02:54;;;;;;;3.27;2.60;;;15.20;99.90;;;;;;5071945;28;20445;-45
2022/06/12 06:05:21;;;;;;;3.33;2.43;;;15.60;99.90;;;;;;5071969;28;20494;-47
2022/06/12 06:07:48;;;;;;;3.13;2.83;;;16.20;99.90;;;;;;5071863;28;21036;-45
2022/06/12 06:10:20;;;;;;;3.20;2.60;;;17.00;99.90;;;;;;5071679;28;20494;-46
2022/06/12 06:12:47;;;;;;;2.97;2.30;;;17.70;99.90;;;;;;5071704;28;20505;-47
2022/06/12 06:15:15;;;;;;;3.17;2.60;;;18.40;99.90;;;;;;5072273;28;20806;-48
2022/06/12 06:17:42;;;;;;;3.30;2.43;;;19.00;99.90;;;;;;5071953;28;20428;-47
2022/06/12 06:20:13;;;;;;;2.80;2.50;;;19.10;99.90;;;;;;5071208;28;20466;-47
2022/06/12 06:22:40;;;;;;;2.60;2.37;;;19.10;99.90;;;;;;5071710;28;20863;-46
2022/06/12 06:25:08;;;;;;;2.30;1.73;;;19.00;99.90;;;;;;5071547;28;20447;-47
2022/06/12 06:27:35;;;;;;;2.30;1.80;;;19.00;99.90;;;;;;5071211;28;20828;-45
2022/06/12 06:30:02;;;;;;;2.73;2.00;;;18.90;99.90;;;;;;5071047;28;20456;-46
2022/06/12 06:32:32;;;;;;;2.33;1.70;;;18.80;99.90;;;;;;5071508;28;20498;-46
2022/06/12 06:34:59;;;;;;;3.10;2.80;;;18.70;99.90;;;;;;5071825;28;20453;-47
2022/06/12 06:37:26;;;;;;;2.90;2.70;;;18.40;99.90;;;;;;5071506;28;20950;-46
2022/06/12 06:39:52;;;;;;;2.30;2.10;;;18.40;99.90;;;;;;5071222;28;20491;-48
2022/06/12 06:42:19;;;;;;;3.40;2.43;;;18.60;99.90;;;;;;5070871;28;20464;-46
2022/06/12 06:47:38;;;;;;;2.63;2.20;;;18.60;99.90;;;;;;5032333;28;20465;-46
2022/06/12 06:50:08;;;;;;;2.77;2.13;;;18.40;99.90;;;;;;5071186;28;20543;-47
2022/06/12 06:52:35;;;;;;;2.33;1.90;;;18.30;99.90;;;;;;5071327;28;20491;-49
2022/06/12 06:55:02;;;;;;;2.13;1.67;;;18.30;99.90;;;;;;5071271;28;20471;-46
2022/06/12 06:57:29;;;;;;;2.30;1.90;;;18.40;99.90;;;;;;5071197;28;20532;-49
2022/06/12 06:59:57;;;;;;;2.20;2.00;;;18.50;99.90;;;;;;5070819;28;20595;-46
2022/06/12 07:02:24;;;;;;;2.47;2.27;;;18.60;99.90;;;;;;5071125;28;20510;-46
2022/06/12 07:04:52;;;;;;;2.33;2.00;;;18.60;99.90;;;;;;5071116;28;20472;-45
2022/06/12 07:07:19;;;;;;;2.60;2.40;;;18.30;99.90;;;;;;5071513;28;20476;-46
2022/06/12 07:09:46;;;;;;;2.20;2.00;;;18.30;99.90;;;;;;5070870;28;20461;-49
2022/06/12 07:12:13;;;;;;;4.43;2.20;;;18.40;99.90;;;;;;5071175;28;20874;-46
2022/06/12 07:14:40;;;;;;;2.07;1.87;;;18.40;99.90;;;;;;5070886;28;20540;-46
2022/06/12 07:17:07;;;;;;;2.60;2.40;;;18.40;99.90;;;;;;5071263;28;20870;-46
2022/06/12 07:19:34;;;;;;;2.83;2.60;;;18.50;99.90;;;;;;5070737;28;20499;-45
2022/06/12 07:22:02;;;;;;;4.77;2.33;;;18.60;99.90;;;;;;5071369;28;20475;-46
2022/06/12 07:24:29;;;;;;;3.10;2.27;;;18.80;99.90;;;;;;5070901;28;20494;-50
2022/06/12 07:26:57;;;;;;;4.97;2.33;;;19.10;99.90;;;;;;5070891;28;20760;-46
2022/06/12 07:29:24;;;;;;;2.40;2.00;;;19.60;99.90;;;;;;5070473;28;20448;-46
2022/06/12 07:31:51;;;;;;;2.47;2.10;;;19.90;99.90;;;;;;5073380;28;20440;-46
2022/06/12 07:34:18;;;;;;;2.80;1.80;;;19.90;99.90;;;;;;5074741;28;20444;-46
2022/06/12 07:36:49;;;;;;;2.50;2.20;;;19.90;99.90;;;;;;5074582;28;20846;-46
2022/06/12 07:39:21;;;;;;;3.47;2.40;;;20.00;99.90;;;;;;5074329;28;20963;-48
2022/06/12 07:41:49;;;;;;;2.40;2.20;;;20.10;99.90;;;;;;5074008;28;20442;-47
2022/06/12 07:44:19;;;;;;;2.60;2.40;;;20.10;99.90;;;;;;5074812;28;20463;-49
2022/06/12 07:46:46;;;;;;;3.13;2.83;;;20.10;99.90;;;;;;5074487;28;20888;-46
2022/06/12 07:49:13;;;;;;;2.73;2.00;;;20.10;99.90;;;;;;5074231;28;20445;-48
2022/06/12 07:51:40;;;;;;;2.47;2.27;;;20.30;99.90;;;;;;5074472;28;20479;-46
2022/06/12 07:54:07;;;;;;;2.80;2.13;;;20.40;99.90;;;;;;5074325;28;20490;-48
2022/06/12 07:56:36;;;;;;;2.43;1.83;;;20.40;99.90;;;;;;5074241;28;20929;-46
2022/06/12 07:59:03;;;;;;;2.60;2.40;;;20.50;99.90;;;;;;5074025;28;21030;-48
2022/06/12 08:01:30;;;;;;;2.00;1.80;;;20.60;99.90;;;;;;5075763;28;20500;-46
2022/06/12 08:03:59;;;;;;;2.33;2.13;;;20.60;99.90;;;;;;5074107;28;20542;-49
2022/06/12 08:06:26;;;;;;;2.60;2.40;;;20.50;99.90;;;;;;5073859;28;20476;-49
2022/06/12 08:08:54;;;;;;;2.43;2.13;;;20.50;99.90;;;;;;5073770;28;20945;-46
2022/06/12 08:11:22;;;;;;;4.40;2.53;;;20.60;99.90;;;;;;5074338;28;20477;-46
2022/06/12 08:13:51;;;;;;;3.33;2.60;;;20.50;99.90;;;;;;5074040;28;20959;-45
2022/06/12 08:16:18;;;;;;;2.80;2.20;;;20.40;99.90;;;;;;5073825;28;20478;-46
2022/06/12 08:18:45;;;;;;;2.87;2.30;;;20.40;99.90;;;;;;5073629;28;20445;-52
2022/06/12 08:21:14;;;;;;;2.43;2.23;;;20.50;99.90;;;;;;5073651;28;20491;-47
2022/06/12 08:23:45;;;;;;;2.93;2.40;;;20.50;99.90;;;;;;5073985;28;20489;-47
2022/06/12 08:26:16;;;;;;;4.07;2.40;;;20.60;99.90;;;;;;5074015;28;20535;-48
2022/06/12 08:28:46;;;;;;;3.70;2.60;;;20.80;99.90;;;;;;5073478;28;20820;-46
2022/06/12 08:31:18;;;;;;;2.20;2.00;;;20.70;99.90;;;;;;5073553;28;20465;-47
2022/06/12 08:33:47;;;;;;;2.93;2.00;;;21.10;99.90;;;;;;5073726;28;20440;-46
2022/06/12 08:36:16;;;;;;;5.43;2.50;;;21.40;99.90;;;;;;5073846;28;20479;-47
2022/06/12 08:38:43;;;;;;;4.03;3.03;;;21.50;99.90;;;;;;5073219;28;20441;-46
2022/06/12 08:41:15;;;;;;;2.80;2.60;;;21.50;99.90;;;;;;5073421;28;20872;-48
2022/06/12 08:43:48;;;;;;;4.07;2.37;;;21.40;99.90;;;;;;5072222;28;20523;-47
2022/06/12 08:46:22;;;;;;;3.60;2.50;;;21.60;99.90;;;;;;5073712;28;20486;-46
2022/06/12 08:48:55;;;;;;;7.47;3.03;;;21.70;99.90;;;;;;5073325;28;20963;-46
2022/06/12 08:51:27;;;;;;;2.90;2.60;;;21.90;99.90;;;;;;5073226;28;20456;-46
2022/06/12 08:54:00;;;;;;;3.03;2.40;;;21.80;99.90;;;;;;5073463;28;20440;-46
2022/06/12 08:56:33;;;;;;;3.37;2.63;;;21.90;99.90;;;;;;5073702;28;20443;-46
2022/06/12 08:59:10;;;;;;;3.27;2.17;;;22.00;99.90;;;;;;5073042;28;20990;-47
2022/06/12 09:01:41;;;;;;;2.57;2.17;;;21.90;99.90;;;;;;5073322;28;20485;-47
2022/06/12 09:04:10;;;;;;;2.70;2.00;;;21.60;99.90;;;;;;5073066;28;20448;-46
2022/06/12 09:06:44;;;;;;;2.50;2.03;;;21.50;99.90;;;;;;5072882;28;20436;-49
2022/06/12 09:09:20;;;;;;;3.17;2.90;;;21.50;99.90;;;;;;5072853;28;20441;-47
2022/06/12 09:11:49;;;;;;;3.00;2.17;;;21.50;99.90;;;;;;5073028;28;20444;-47
2022/06/12 09:14:32;;;;;;;1.97;1.77;;;21.60;99.90;;;;;;5072741;28;20926;-46
2022/06/12 09:17:14;;;;;;;2.47;2.10;;;21.80;99.90;;;;;;5072939;28;20524;-46
2022/06/12 09:19:49;;;;;;;2.47;2.27;;;21.90;99.90;;;;;;5072594;28;20464;-46
2022/06/12 09:22:26;;;;;;;2.57;2.03;;;22.10;99.90;;;;;;5072590;28;20518;-47
2022/06/12 09:25:01;;;;;;;2.10;1.90;;;22.30;99.90;;;;;;5072899;28;20472;-48
2022/06/12 09:27:39;;;;;;;3.07;1.70;;;22.50;99.90;;;;;;5072999;28;20499;-46
2022/06/12 09:30:10;;;;;;;2.57;2.37;;;22.60;99.90;;;;;;5071986;28;20468;-46
2022/06/12 09:32:50;;;;;;;4.43;2.10;;;22.70;99.90;;;;;;5073049;28;20463;-46
2022/06/12 09:35:29;;;;;;;2.00;1.80;;;22.80;99.90;;;;;;5072794;28;20523;-50
2022/06/12 09:38:19;;;;;;;4.23;2.40;;;22.90;99.90;;;;;;5072617;28;20464;-47
2022/06/12 09:41:07;;;;;;;3.47;2.80;;;23.00;98.80;;;;;;5071660;28;20466;-47
2022/06/12 09:43:40;;;;;;;2.30;2.00;;;23.00;99.90;;;;;;5072311;28;20451;-46
2022/06/12 09:46:18;;;;;;;8.80;5.50;;;22.90;99.90;;;;;;5072613;28;20466;-46
2022/06/12 09:48:57;;;;;;;2.90;2.60;;;23.10;99.90;;;;;;5072077;28;20482;-49
2022/06/12 09:51:43;;;;;;;4.13;2.80;;;23.30;99.90;;;;;;5071901;28;20486;-48
2022/06/12 09:54:38;;;;;;;2.40;2.20;;;23.20;99.90;;;;;;5071832;28;20495;-48
2022/06/12 09:57:17;;;;;;;2.53;1.90;;;23.40;99.90;;;;;;5072145;28;20467;-47
2022/06/12 09:59:49;;;;;;;3.00;2.70;;;23.60;99.90;;;;;;5071724;28;20467;-46
2022/06/12 10:02:25;;;;;;;3.00;2.47;;;23.60;99.70;;;;;;5072045;28;20447;-46
2022/06/12 10:05:01;;;;;;;2.60;2.20;;;23.70;98.10;;;;;;5072162;28;20479;-46
2022/06/12 10:07:34;;;;;;;2.30;2.10;;;23.70;99.90;;;;;;5071792;28;21043;-47
2022/06/12 10:10:08;;;;;;;1.80;1.50;;;23.60;99.20;;;;;;5071507;28;20468;-48
2022/06/12 10:12:40;;;;;;;2.23;2.03;;;23.60;99.30;;;;;;5071757;28;20995;-49
2022/06/12 10:15:13;;;;;;;2.20;2.00;;;23.60;97.80;;;;;;5072075;28;20473;-47
2022/06/12 10:17:45;;;;;;;2.57;1.90;;;23.60;96.50;;;;;;5071770;28;20497;-50
2022/06/12 10:20:20;;;;;;;2.20;1.57;;;23.60;97.10;;;;;;5071477;28;20497;-47
2022/06/12 10:22:49;;;;;;;1.60;1.50;;;23.60;92.70;;;;;;5071478;28;20467;-46
2022/06/12 10:25:21;;;;;;;1.87;1.60;;;23.60;93.20;;;;;;5071342;28;20519;-49
2022/06/12 10:27:51;;;;;;;2.17;1.30;;;23.70;92.20;;;;;;5071569;28;20563;-46
2022/06/12 10:30:33;;;;;;;2.27;1.40;;;23.80;93.10;;;;;;5071400;28;20460;-46
2022/06/12 10:33:15;;;;;;;2.37;1.90;;;23.90;93.60;;;;;;5071714;28;20527;-46
2022/06/12 10:35:53;;;;;;;1.50;1.30;;;24.20;94.20;;;;;;5072018;28;20465;-46
2022/06/12 10:38:21;;;;;;;3.50;1.40;;;24.40;92.20;;;;;;5071504;28;20467;-46
2022/06/12 10:40:53;;;;;;;2.13;1.50;;;24.30;86.80;;;;;;5070851;28;20464;-46
2022/06/12 10:43:31;;;;;;;1.70;1.50;;;24.20;92.70;;;;;;5071388;28;20472;-47
2022/06/12 10:46:02;;;;;;;1.47;1.03;;;24.20;91.20;;;;;;5071370;28;20841;-47
2022/06/12 10:48:34;;;;;;;2.50;1.40;;;24.30;93.40;;;;;;5071530;28;20564;-48
2022/06/12 10:51:06;;;;;;;3.67;1.77;;;24.50;94.80;;;;;;5071377;28;20548;-44
2022/06/12 10:53:35;;;;;;;2.10;1.53;;;24.60;92.10;;;;;;5071404;28;20444;-46
2022/06/12 10:56:21;;;;;;;3.03;1.30;;;24.70;90.40;;;;;;5071220;28;20535;-47
2022/06/12 10:59:10;;;;;;;1.90;1.30;;;24.80;92.10;;;;;;5071431;28;20468;-49
2022/06/12 11:01:49;;;;;;;6.30;1.70;;;24.80;86.90;;;;;;5071058;28;20527;-46
2022/06/12 11:04:27;;;;;;;2.57;1.73;;;24.80;90.80;;;;;;5071313;28;20436;-46
2022/06/12 11:07:08;;;;;;;1.93;1.57;;;24.80;90.00;;;;;;5070447;28;20467;-47
2022/06/12 11:09:44;;;;;;;1.60;1.07;;;24.80;90.00;;;;;;5071322;28;20935;-46
2022/06/12 11:12:36;;;;;;;4.13;1.70;;;24.90;89.20;;;;;;5071385;28;20526;-49
2022/06/12 11:15:22;;;;;;;1.40;1.30;;;24.90;91.00;;;;;;5069111;28;21018;-47
2022/06/12 11:17:59;;;;;;;2.27;1.50;;;24.80;90.70;;;;;;5071365;28;20519;-48
2022/06/12 11:20:35;;;;;;;2.20;1.23;;;24.90;90.90;;;;;;5070834;28;20495;-46
2022/06/12 11:23:21;;;;;;;2.00;1.53;;;25.00;92.00;;;;;;5071028;28;20475;-48
2022/06/12 11:25:58;;;;;;;1.97;1.33;;;24.90;86.80;;;;;;5071057;28;20503;-50
2022/06/12 11:28:38;;;;;;;1.87;1.37;;;24.90;90.10;;;;;;5070524;28;20472;-46
2022/06/12 11:31:16;;;;;;;2.20;1.77;;;24.90;89.90;;;;;;5070933;28;20543;-47
2022/06/12 11:34:02;;;;;;;2.07;1.60;;;24.90;91.60;;;;;;5070748;28;20474;-46
2022/06/12 11:36:36;;;;;;;2.17;1.40;;;24.90;92.90;;;;;;5070859;28;20476;-46
2022/06/12 11:39:28;;;;;;;4.87;1.43;;;25.00;92.70;;;;;;5070970;28;20436;-48
2022/06/12 11:42:08;;;;;;;1.63;1.30;;;25.00;81.00;;;;;;5070495;28;20472;-46
2022/06/12 11:44:46;;;;;;;2.40;1.50;;;25.20;86.80;;;;;;5070807;28;20448;-48
2022/06/12 11:47:25;;;;;;;2.10;1.50;;;25.20;91.70;;;;;;5071243;28;20452;-51
2022/06/12 11:50:02;;;;;;;1.70;1.47;;;25.20;90.10;;;;;;5070235;28;20453;-47
2022/06/12 11:52:45;;;;;;;1.97;1.77;;;25.20;91.50;;;;;;5071060;28;20443;-50
2022/06/12 11:55:25;;;;;;;1.90;1.70;;;25.20;89.30;;;;;;5070599;28;20440;-48
2022/06/12 11:58:03;;;;;;;1.40;1.30;;;25.30;89.80;;;;;;5070643;28;20876;-46
2022/06/12 12:00:39;;;;;;;3.37;1.40;;;25.30;88.30;;;;;;5070406;28;20527;-47
2022/06/12 12:03:22;;;;;;;1.77;1.30;;;25.40;82.60;;;;;;5070626;28;20493;-47
2022/06/12 12:05:58;;;;;;;1.50;1.33;;;25.50;82.60;;;;;;5070715;28;20517;-46
2022/06/12 12:08:49;;;;;;;4.50;1.93;;;25.60;83.40;;;;;;5070302;28;20476;-49
2022/06/12 12:11:21;;;;;;;2.50;1.30;;;25.60;83.40;;;;;;5070748;28;20464;-47
2022/06/12 12:13:53;;;;;;;1.90;1.50;;;25.60;76.60;;;;;;5070435;28;20444;-47
2022/06/12 12:16:30;;;;;;;4.60;1.63;;;25.70;83.00;;;;;;5070398;28;20446;-46
2022/06/12 12:19:02;;;;;;;2.43;1.27;;;25.80;73.50;;;;;;5073873;28;20432;-51
2022/06/12 12:21:34;;;;;;;6.70;1.77;;;25.80;78.00;;;;;;5074440;28;20460;-46
2022/06/12 12:24:05;;;;;;;3.33;1.10;;;25.90;74.00;;;;;;5073984;28;20476;-46
2022/06/12 12:26:38;;;;;;;1.80;1.20;;;25.90;72.60;;;;;;5073895;28;20440;-46
2022/06/12 12:29:07;;;;;;;3.27;1.30;;;25.90;79.30;;;;;;5073325;28;20837;-47
2022/06/12 12:31:35;;;;;;;1.30;0.87;;;26.00;75.40;;;;;;5073836;28;20440;-47
2022/06/12 12:34:06;;;;;;;1.50;0.90;;;26.10;74.10;;;;;;5073822;28;20862;-46
2022/06/12 12:42:31;;;;;;;1.60;1.10;;;26.10;78.40;;;;;;5072979;28;20455;-49
2022/06/12 12:45:11;;;;;;;1.67;1.33;;;26.10;79.40;;;;;;5073557;28;20809;-48
2022/06/12 12:47:38;;;;;;;1.57;1.20;;;26.10;69.10;;;;;;5072452;28;20448;-46
2022/06/12 12:50:10;;;;;;;12.63;2.77;;;26.20;69.40;;;;;;5073107;28;20826;-48
2022/06/12 12:52:46;;;;;;;1.80;1.00;;;26.20;71.80;;;;;;5073397;28;20837;-46
2022/06/12 12:55:29;;;;;;;2.70;1.10;;;26.30;70.20;;;;;;5073534;28;20471;-46
2022/06/12 12:58:00;;;;;;;3.17;1.30;;;26.30;71.20;;;;;;5073125;28;20444;-47
2022/06/12 13:00:34;;;;;;;2.13;0.80;;;26.30;72.10;;;;;;5073143;28;20529;-47
2022/06/12 13:03:09;;;;;;;2.20;1.10;;;26.30;70.50;;;;;;5073322;28;20803;-47
2022/06/12 13:05:54;;;;;;;2.33;1.60;;;26.30;70.80;;;;;;5073281;28;20968;-46
2022/06/12 13:08:44;;;;;;;1.73;1.03;;;26.20;69.80;;;;;;5073006;28;20579;-49
2022/06/12 13:11:25;;;;;;;1.50;0.93;;;26.30;70.50;;;;;;5072801;28;20467;-48
2022/06/12 13:14:10;;;;;;;2.37;1.30;;;26.40;70.30;;;;;;5072869;28;20444;-47
2022/06/12 13:16:56;;;;;;;1.60;1.10;;;26.40;71.20;;;;;;5072848;28;20440;-47
2022/06/12 13:19:45;;;;;;;1.50;1.07;;;26.50;69.70;;;;;;5072841;28;20463;-48
2022/06/12 13:22:23;;;;;;;1.23;0.83;;;26.50;65.60;;;;;;5072970;28;20527;-47
2022/06/12 13:24:55;;;;;;;1.70;1.13;;;26.50;66.80;;;;;;5072954;28;20440;-46
2022/06/12 13:27:25;;;;;;;2.50;0.93;;;26.50;64.60;;;;;;5072707;28;20448;-47
2022/06/12 13:29:54;;;;;;;2.37;1.00;;;26.60;65.10;;;;;;5071693;28;20580;-47
2022/06/12 13:32:25;;;;;;;1.40;0.90;;;26.60;65.60;;;;;;5073226;28;20464;-51